Boynton Beach, FL (33437)

3:26 PM EST on December 08, 2016 (GMT -0500)
| | Change Station

Elev -9999 ft 0.00 °N, 0.00 °E | Updated 1 minute ago

Partly Cloudy
Partly Cloudy
°F
Feels Like °F
N
Wind Variable Wind from North
Gusts mph

Today
High -- | Low -- °F
--% Chance of Precip.
Yesterday
High -- | Low -- °F
Precip. -- in
Pressure 30.05 in
Visibility 10.0 miles
Clouds Scattered Clouds 2600 ft
Scattered Clouds 3400 ft
Scattered Clouds 4100 ft
Dew Point Not available.
Humidity Not available.
Rainfall --
Snow Depth Not available.
6:56 AM 5:28 PM
Waxing Gibbous, 66% visible
METAR KPBI 081953Z 04009KT 10SM SCT026 SCT034 SCT041 26/20 A3005 RMK AO2 SLP174 T02560200
Pressure 30.05 in
Visibility 10.0 miles
Clouds Scattered Clouds 2600 ft
Scattered Clouds 3400 ft
Scattered Clouds 4100 ft
Dew Point Not available.
Humidity Not available.
Rainfall --
Snow Depth Not available.
6:56 AM 5:28 PM
Waxing Gibbous, 66% visible
METAR KPBI 081953Z 04009KT 10SM SCT026 SCT034 SCT041 26/20 A3005 RMK AO2 SLP174 T02560200

10-Day Weather Forecast

Almanac

Astronomy

Dec. 08, 2016 Rise Set
Actual Time
Civil Twilight
Nautical Twilight
Astronomical Twilight
Moon
Length of Visible Light
Length of Day
Tomorrow will be .
, % of the Moon is Illuminated

Today's Extremes

State Highs State Lows

Community

WunderPhotos

Upload Photos

1,956,277 photos uploaded!

WunderBlog® & News

Nearby

Air Quality

  Air Quality AQ Index Pollutant
Not available.

Snow Depth

Station Depth Elevation

Earthquake Activity

City Distance Mag. Time & Date
Minimum magnitude displayed is 2.5.

Coastal Water Temperatures

Place Temperature

Stations

Nearby Weather Stations

Station Location Temp. Windchill Dew Point Humidity Wind Precip. Elev Updated Type
                   

Watches & Warnings

There are currently no watches in effect.